createdAt,value
2018-01-10T00:00:24.145Z,6.70
2018-01-10T00:02:52.558Z,6.60
2018-01-10T00:05:20.601Z,6.20
2018-01-10T00:07:48.675Z,6.00
2018-01-10T00:10:17.309Z,6.10
2018-01-10T00:12:46.105Z,6.10
2018-01-10T00:15:14.305Z,6.00
2018-01-10T00:17:42.390Z,6.10
2018-01-10T00:20:10.462Z,6.00
2018-01-10T00:22:38.522Z,5.90
2018-01-10T00:25:06.570Z,6.10
2018-01-10T00:27:35.401Z,6.30
2018-01-10T00:30:03.451Z,6.40
2018-01-10T00:32:31.561Z,6.30
2018-01-10T00:34:59.610Z,6.20
2018-01-10T00:37:27.670Z,6.20
2018-01-10T00:39:56.614Z,6.20
2018-01-10T00:42:24.681Z,6.20
2018-01-10T00:44:52.778Z,6.30
2018-01-10T00:47:20.850Z,6.50
2018-01-10T00:49:48.920Z,6.40
2018-01-10T00:52:18.440Z,6.10
2018-01-10T00:54:46.539Z,6.10
2018-01-10T00:57:14.908Z,6.20
2018-01-10T00:59:42.953Z,6.30
2018-01-10T01:02:11.657Z,6.70
2018-01-10T01:04:39.706Z,6.70
2018-01-10T01:07:07.801Z,6.70
2018-01-10T01:09:35.843Z,6.60
2018-01-10T01:12:03.927Z,6.30
2018-01-10T01:14:32.025Z,6.00
2018-01-10T01:17:00.101Z,5.90
2018-01-10T01:19:28.157Z,5.70
2018-01-10T01:21:56.210Z,5.70
2018-01-10T01:24:25.178Z,5.70
2018-01-10T01:26:53.226Z,5.80
2018-01-10T01:29:21.313Z,5.90
2018-01-10T01:31:49.381Z,6.00
2018-01-10T01:34:17.461Z,6.40
2018-01-10T01:36:45.502Z,6.30
2018-01-10T01:39:13.622Z,6.20
2018-01-10T01:41:41.678Z,5.90
2018-01-10T01:44:09.735Z,5.70
2018-01-10T01:46:37.786Z,5.50
2018-01-10T01:49:06.633Z,5.50
2018-01-10T01:51:34.714Z,5.40
2018-01-10T01:54:02.765Z,5.60
2018-01-10T01:56:30.818Z,5.60
2018-01-10T01:58:58.886Z,5.70
2018-01-10T02:01:28.146Z,5.70
2018-01-10T02:03:56.226Z,5.80
2018-01-10T02:06:24.294Z,5.80
2018-01-10T02:08:52.486Z,5.80
2018-01-10T02:11:20.563Z,5.90
2018-01-10T02:13:48.613Z,5.80
2018-01-10T02:16:16.667Z,5.70
2018-01-10T02:18:45.839Z,5.60
2018-01-10T02:21:13.886Z,5.70
2018-01-10T02:23:41.950Z,5.70
2018-01-10T02:26:10.004Z,5.80
2018-01-10T02:28:38.063Z,5.60
2018-01-10T02:31:06.110Z,5.60
2018-01-10T02:33:34.162Z,5.50
2018-01-10T02:36:02.213Z,5.70
2018-01-10T02:38:30.301Z,5.70
2018-01-10T02:40:58.349Z,5.70
2018-01-10T02:43:26.461Z,5.80
2018-01-10T02:45:54.522Z,5.70
2018-01-10T02:48:22.620Z,5.90
2018-01-10T02:50:50.691Z,5.80
2018-01-10T02:53:19.891Z,5.80
2018-01-10T02:55:47.980Z,5.60
2018-01-10T02:58:16.037Z,5.60
2018-01-10T03:00:44.090Z,5.70
2018-01-10T03:03:12.150Z,5.70
2018-01-10T03:05:40.966Z,5.80
2018-01-10T03:08:09.040Z,5.80
2018-01-10T03:10:37.146Z,5.80
2018-01-10T03:13:05.221Z,5.70
2018-01-10T03:15:33.269Z,5.60
2018-01-10T03:18:01.370Z,5.40
2018-01-10T03:20:31.758Z,5.30
2018-01-10T03:23:00.595Z,5.30
2018-01-10T03:25:28.669Z,5.20
2018-01-10T03:27:57.293Z,5.50
2018-01-10T03:30:25.351Z,5.70
2018-01-10T03:32:53.414Z,5.70
2018-01-10T03:35:21.477Z,5.60
2018-01-10T03:37:50.494Z,5.60
2018-01-10T03:40:18.662Z,5.50
2018-01-10T03:42:46.742Z,5.50
2018-01-10T03:45:14.808Z,5.40
2018-01-10T03:47:42.850Z,5.10
2018-01-10T03:50:10.901Z,5.00
2018-01-10T03:52:39.726Z,4.90
2018-01-10T03:55:07.794Z,4.90
2018-01-10T03:57:35.846Z,4.90
2018-01-10T04:00:04.688Z,5.00
2018-01-10T04:02:33.004Z,5.50
2018-01-10T04:05:01.058Z,5.50
2018-01-10T04:07:29.115Z,5.10
2018-01-10T04:09:57.214Z,4.90
2018-01-10T04:12:25.285Z,4.90
2018-01-10T04:14:53.365Z,5.20
2018-01-10T04:17:21.561Z,5.30
2018-01-10T04:19:49.721Z,5.00
2018-01-10T04:22:17.803Z,4.90
2018-01-10T04:24:45.854Z,4.80
2018-01-10T04:27:13.905Z,4.70
2018-01-10T04:29:42.746Z,4.70
2018-01-10T04:32:10.810Z,4.80
2018-01-10T04:34:38.861Z,4.90
2018-01-10T04:37:06.973Z,4.80
2018-01-10T04:39:35.053Z,4.90
2018-01-10T04:42:03.116Z,4.90
2018-01-10T04:44:31.207Z,4.90
2018-01-10T04:46:59.359Z,4.90
2018-01-10T04:49:27.461Z,4.90
2018-01-10T04:51:55.509Z,4.90
2018-01-10T04:54:23.609Z,4.90
2018-01-10T04:56:51.894Z,5.00
2018-01-10T04:59:19.970Z,4.90
2018-01-10T05:01:48.029Z,4.80
2018-01-10T05:04:16.086Z,4.90
2018-01-10T05:06:44.194Z,4.90
2018-01-10T05:09:12.265Z,4.80
2018-01-10T05:11:40.322Z,4.70
2018-01-10T05:14:08.427Z,4.80
2018-01-10T05:16:38.467Z,4.80
2018-01-10T05:19:06.521Z,4.70
2018-01-10T05:21:34.566Z,4.70
2018-01-10T05:24:02.678Z,4.70
2018-01-10T05:26:30.731Z,4.70
2018-01-10T05:28:58.778Z,4.60
2018-01-10T05:31:27.617Z,4.60
2018-01-10T05:33:55.668Z,4.70
2018-01-10T05:36:23.709Z,4.90
2018-01-10T05:38:52.674Z,5.20
2018-01-10T05:41:20.754Z,4.90
2018-01-10T05:43:48.810Z,4.70
2018-01-10T05:46:16.861Z,4.80
2018-01-10T05:48:45.367Z,5.10
2018-01-10T05:51:13.458Z,4.90
2018-01-10T05:53:41.529Z,4.90
2018-01-10T05:56:09.615Z,5.20
2018-01-10T05:58:38.273Z,5.20
2018-01-10T06:01:06.375Z,5.60
2018-01-10T06:03:34.423Z,6.90
2018-01-10T06:06:02.526Z,7.30
2018-01-10T06:08:30.606Z,6.90
2018-01-10T06:10:58.674Z,6.40
2018-01-10T06:13:26.757Z,6.10
2018-01-10T06:15:54.840Z,5.80
2018-01-10T06:18:23.755Z,5.60
2018-01-10T06:20:54.465Z,5.40
2018-01-10T06:23:24.498Z,5.40
2018-01-10T06:25:53.730Z,5.30
2018-01-10T06:28:22.585Z,5.30
2018-01-10T06:30:50.645Z,5.30
2018-01-10T06:33:18.694Z,5.20
2018-01-10T06:35:46.814Z,5.00
2018-01-10T06:38:14.865Z,5.00
2018-01-10T06:40:42.922Z,4.80
2018-01-10T06:43:10.985Z,4.70
2018-01-10T06:45:39.834Z,4.60
2018-01-10T06:48:07.910Z,4.50
2018-01-10T06:50:35.986Z,4.50
2018-01-10T06:53:04.144Z,4.50
2018-01-10T06:55:32.199Z,4.30
2018-01-10T06:58:00.261Z,4.20
2018-01-10T07:00:29.082Z,4.20
2018-01-10T07:02:57.192Z,4.30
2018-01-10T07:05:25.266Z,4.20
2018-01-10T07:07:54.454Z,4.10
2018-01-10T07:10:22.507Z,4.10
2018-01-10T07:12:51.266Z,3.90
2018-01-10T07:15:19.381Z,3.90
2018-01-10T07:17:47.452Z,3.90
2018-01-10T07:20:15.506Z,3.90
2018-01-10T07:22:44.350Z,4.10
2018-01-10T07:25:12.429Z,4.00
2018-01-10T07:27:40.506Z,4.00
2018-01-10T07:30:08.690Z,4.10
2018-01-10T07:32:36.734Z,3.90
2018-01-10T07:35:04.786Z,4.00
2018-01-10T07:37:33.638Z,4.00
2018-01-10T07:40:01.697Z,4.00
2018-01-10T07:42:29.766Z,4.10
2018-01-10T07:44:57.821Z,4.10
2018-01-10T07:47:25.898Z,4.20
2018-01-10T07:49:55.854Z,4.30
2018-01-10T07:52:25.877Z,4.40
2018-01-10T07:54:55.058Z,4.50
2018-01-10T07:57:23.364Z,4.60
2018-01-10T07:59:51.455Z,4.60
2018-01-10T08:02:19.625Z,4.50
2018-01-10T08:04:47.794Z,4.60
2018-01-10T08:07:15.853Z,4.70
2018-01-10T08:09:43.973Z,4.80
2018-01-10T08:12:11.978Z,4.90
2018-01-10T08:14:40.453Z,5.30
2018-01-10T08:17:09.270Z,5.20
2018-01-10T08:19:37.378Z,5.10
2018-01-10T08:22:05.454Z,5.10
2018-01-10T08:24:33.527Z,5.20
2018-01-10T08:27:04.926Z,5.00
2018-01-10T08:29:33.060Z,4.90
2018-01-10T08:32:01.114Z,5.10
2018-01-10T08:34:29.209Z,5.20
2018-01-10T08:36:57.286Z,5.30
2018-01-10T08:39:25.984Z,5.30
2018-01-10T08:41:54.045Z,5.40
2018-01-10T08:44:22.266Z,5.40
2018-01-10T08:46:50.342Z,5.40
2018-01-10T08:49:18.500Z,5.20
2018-01-10T08:51:46.571Z,5.00
2018-01-10T08:54:15.461Z,4.90
2018-01-10T08:56:43.532Z,5.30
2018-01-10T08:59:11.604Z,5.40
2018-01-10T09:01:39.675Z,5.30
2018-01-10T09:04:08.074Z,5.30
2018-01-10T09:06:36.147Z,5.30
2018-01-10T09:09:04.217Z,5.20
2018-01-10T09:11:32.282Z,5.70
2018-01-10T09:14:00.378Z,5.60
2018-01-10T09:16:28.447Z,5.70
2018-01-10T09:18:56.501Z,5.80
2018-01-10T09:21:24.578Z,5.90
2018-01-10T09:23:52.686Z,5.90
2018-01-10T09:26:20.757Z,6.70
2018-01-10T09:28:48.829Z,7.40
2018-01-10T09:31:16.894Z,7.10
2018-01-10T09:33:44.946Z,7.00
2018-01-10T09:36:13.006Z,6.80
2018-01-10T09:38:41.854Z,6.70
2018-01-10T09:41:10.704Z,6.40
2018-01-10T09:43:38.830Z,6.30
2018-01-10T09:46:06.916Z,6.40
2018-01-10T09:48:34.961Z,6.40
2018-01-10T09:51:03.025Z,6.30
2018-01-10T09:53:31.084Z,6.40
2018-01-10T09:55:59.942Z,6.60
2018-01-10T09:58:27.982Z,6.50
2018-01-10T10:00:56.782Z,6.50
2018-01-10T10:03:24.866Z,6.70
2018-01-10T10:05:52.951Z,6.80
2018-01-10T10:08:21.006Z,6.60
2018-01-10T10:10:49.098Z,6.50
2018-01-10T10:13:17.171Z,6.50
2018-01-10T10:15:45.244Z,6.60
2018-01-10T10:18:13.325Z,6.70
2018-01-10T10:20:41.399Z,7.00
2018-01-10T10:23:09.489Z,7.30
2018-01-10T10:25:37.553Z,7.40
2018-01-10T10:28:05.612Z,7.40
2018-01-10T10:30:33.705Z,7.70
2018-01-10T10:33:01.770Z,7.70
2018-01-10T10:35:30.586Z,7.70
2018-01-10T10:37:58.645Z,7.80
2018-01-10T10:40:27.854Z,8.10
2018-01-10T10:42:57.071Z,8.10
2018-01-10T10:45:25.145Z,8.30
2018-01-10T10:47:53.308Z,8.50
2018-01-10T10:50:21.395Z,8.70
2018-01-10T10:52:49.473Z,8.70
2018-01-10T10:55:18.134Z,8.90
2018-01-10T10:57:46.224Z,9.10
2018-01-10T11:00:14.318Z,9.20
2018-01-10T11:02:42.372Z,9.10
2018-01-10T11:05:10.428Z,9.00
2018-01-10T11:07:38.485Z,9.60
2018-01-10T11:10:07.301Z,9.70
2018-01-10T11:12:35.369Z,9.90
2018-01-10T11:15:03.682Z,10.00
2018-01-10T11:17:31.754Z,10.50
2018-01-10T11:19:59.842Z,10.70
2018-01-10T11:22:27.909Z,10.80
2018-01-10T11:24:56.097Z,11.20
2018-01-10T11:27:26.546Z,11.30
2018-01-10T11:29:54.590Z,11.70
2018-01-10T11:32:22.672Z,11.60
2018-01-10T11:34:50.734Z,11.00
2018-01-10T11:37:18.797Z,11.40
2018-01-10T11:39:47.045Z,11.80
2018-01-10T11:42:15.887Z,12.00
2018-01-10T11:44:43.937Z,12.30
2018-01-10T11:47:12.129Z,12.40
2018-01-10T11:49:40.177Z,13.00
2018-01-10T11:52:09.014Z,13.40
2018-01-10T11:54:37.134Z,13.30
2018-01-10T11:57:05.205Z,13.50
2018-01-10T11:59:33.873Z,13.60
2018-01-10T12:02:01.945Z,13.70
2018-01-10T12:04:30.022Z,14.10
2018-01-10T12:06:58.914Z,14.70
2018-01-10T12:09:28.853Z,14.90
2018-01-10T12:11:58.045Z,14.70
2018-01-10T12:14:26.110Z,14.20
2018-01-10T12:16:54.193Z,13.90
2018-01-10T12:19:22.265Z,13.60
2018-01-10T12:21:50.342Z,13.40
2018-01-10T12:24:18.401Z,13.40
2018-01-10T12:26:46.498Z,13.20
2018-01-10T12:29:14.569Z,12.50
2018-01-10T12:31:42.750Z,12.50
2018-01-10T12:34:10.810Z,12.80
2018-01-10T12:36:38.890Z,13.30
2018-01-10T12:39:06.985Z,13.40
2018-01-10T12:41:35.137Z,13.30
2018-01-10T12:44:03.464Z,13.10
2018-01-10T12:46:32.261Z,14.20
2018-01-10T12:49:00.333Z,15.80
2018-01-10T12:51:28.501Z,17.50
2018-01-10T12:53:56.581Z,18.30
2018-01-10T12:56:25.405Z,17.60
2018-01-10T12:58:54.254Z,17.70
2018-01-10T13:01:22.320Z,16.40
2018-01-10T13:03:50.389Z,16.70
2018-01-10T13:06:18.813Z,16.00
2018-01-10T13:08:46.983Z,16.00
2018-01-10T13:11:15.029Z,15.80
2018-01-10T13:13:43.110Z,16.10
2018-01-10T13:16:11.206Z,15.00
2018-01-10T13:18:39.381Z,14.10
2018-01-10T13:21:07.562Z,13.50
2018-01-10T13:23:36.358Z,13.00
2018-01-10T13:26:05.933Z,13.40
2018-01-10T13:28:34.038Z,13.60
2018-01-10T13:31:02.106Z,13.90
2018-01-10T13:33:30.174Z,14.60
2018-01-10T13:35:59.870Z,14.50
2018-01-10T13:38:29.098Z,14.30
2018-01-10T13:40:57.166Z,14.50
2018-01-10T13:43:25.237Z,14.20
2018-01-10T13:45:53.298Z,13.80
2018-01-10T13:48:21.423Z,13.30
2018-01-10T13:50:49.430Z,13.50
2018-01-10T13:53:18.371Z,14.90
2018-01-10T13:55:46.450Z,16.60
2018-01-10T13:58:14.526Z,17.80
2018-01-10T14:00:42.610Z,18.60
2018-01-10T14:03:10.685Z,18.80
2018-01-10T14:05:38.757Z,17.90
2018-01-10T14:08:06.830Z,17.20
2018-01-10T14:10:34.919Z,17.20
2018-01-10T14:13:03.094Z,16.80
2018-01-10T14:15:31.269Z,17.50
2018-01-10T14:18:00.465Z,17.00
2018-01-10T14:20:30.434Z,16.60
2018-01-10T14:23:00.390Z,16.50
2018-01-10T14:25:30.434Z,15.60
2018-01-10T14:27:59.626Z,15.00
2018-01-10T14:30:27.702Z,15.10
2018-01-10T14:32:55.787Z,14.90
2018-01-10T14:35:23.849Z,14.40
2018-01-10T14:37:51.914Z,14.10
2018-01-10T14:40:19.994Z,13.30
2018-01-10T14:42:48.085Z,12.80
2018-01-10T14:45:16.162Z,12.30
2018-01-10T14:47:44.237Z,12.00
2018-01-10T14:50:12.305Z,11.70
2018-01-10T14:52:40.367Z,11.80
2018-01-10T14:55:08.449Z,11.80
2018-01-10T14:57:36.550Z,11.60
2018-01-10T15:00:04.722Z,11.40
2018-01-10T15:06:11.058Z,10.70
2018-01-10T15:08:39.110Z,10.50
2018-01-10T15:11:08.022Z,10.10
2018-01-10T15:13:36.086Z,9.80
2018-01-10T15:16:04.158Z,9.80
2018-01-10T15:18:32.979Z,9.60
2018-01-10T15:21:01.046Z,9.30
2018-01-10T15:23:29.098Z,9.10
2018-01-10T15:25:58.505Z,8.90
2018-01-10T15:28:26.516Z,8.70
2018-01-10T15:30:54.625Z,8.60
2018-01-10T15:33:22.793Z,8.40
2018-01-10T15:35:50.854Z,8.30
2018-01-10T15:38:18.905Z,8.20
2018-01-10T15:40:46.973Z,8.10
2018-01-10T15:43:15.089Z,8.10
2018-01-10T15:45:43.272Z,8.00
2018-01-10T15:48:11.314Z,7.80
2018-01-10T15:50:39.434Z,7.70
2018-01-10T15:53:07.486Z,7.70
2018-01-10T15:55:35.543Z,7.60
2018-01-10T15:58:03.656Z,7.50
2018-01-10T16:00:31.803Z,7.50
2018-01-10T16:03:00.985Z,7.50
2018-01-10T16:05:29.066Z,7.40
2018-01-10T16:07:57.194Z,7.30
2018-01-10T16:10:25.366Z,7.20
2018-01-10T16:12:53.443Z,7.20
2018-01-10T16:15:21.627Z,7.20
2018-01-10T16:17:49.700Z,7.20
2018-01-10T16:20:17.782Z,7.10
2018-01-10T16:22:45.854Z,7.10
2018-01-10T16:25:13.907Z,7.10
2018-01-10T16:27:41.963Z,7.00
2018-01-10T16:30:10.027Z,6.90
2018-01-10T16:32:38.979Z,6.90
2018-01-10T16:35:07.145Z,6.90
2018-01-10T16:37:35.330Z,6.70
2018-01-10T16:40:03.394Z,6.60
2018-01-10T16:42:32.928Z,6.50
2018-01-10T16:45:02.599Z,6.40
2018-01-10T16:47:31.825Z,6.30
2018-01-10T16:49:59.902Z,6.30
2018-01-10T16:52:27.974Z,6.30
2018-01-10T16:54:56.054Z,6.20
2018-01-10T16:57:24.129Z,6.20
2018-01-10T16:59:52.177Z,6.30
2018-01-10T17:02:20.449Z,6.30
2018-01-10T17:04:48.497Z,6.20
2018-01-10T17:07:16.563Z,6.10
2018-01-10T17:09:44.606Z,6.10
2018-01-10T17:12:12.666Z,6.10
2018-01-10T17:14:40.713Z,6.10
2018-01-10T17:17:10.042Z,6.30
2018-01-10T17:19:38.130Z,6.40
2018-01-10T17:22:06.224Z,6.30
2018-01-10T17:24:34.281Z,6.30
2018-01-10T17:27:02.342Z,6.10
2018-01-10T17:29:30.458Z,6.10
2018-01-10T17:31:58.641Z,6.00
2018-01-10T17:34:26.697Z,6.00
2018-01-10T17:36:54.763Z,6.20
2018-01-10T17:39:22.817Z,6.30
2018-01-10T17:41:50.933Z,6.40
2018-01-10T17:44:18.993Z,6.20
2018-01-10T17:46:47.090Z,6.10
2018-01-10T17:49:15.764Z,6.00
2018-01-10T17:51:43.824Z,5.90
2018-01-10T17:54:11.869Z,5.90
2018-01-10T17:56:40.702Z,5.80
2018-01-10T17:59:08.749Z,5.70
2018-01-10T18:01:37.586Z,5.60
2018-01-10T18:04:05.982Z,5.60
2018-01-10T18:06:34.069Z,5.60
2018-01-10T18:09:03.428Z,5.60
2018-01-10T18:11:32.680Z,5.60
2018-01-10T18:14:00.734Z,5.70
2018-01-10T18:16:28.914Z,5.60
2018-01-10T18:18:56.966Z,5.80
2018-01-10T18:21:26.836Z,6.10
2018-01-10T18:23:54.985Z,5.80
2018-01-10T18:26:23.061Z,5.70
2018-01-10T18:28:51.270Z,5.60
2018-01-10T18:31:19.421Z,5.60
2018-01-10T18:33:47.494Z,5.60
2018-01-10T18:36:15.573Z,5.30
2018-01-10T18:38:43.622Z,5.10
2018-01-10T18:41:11.725Z,4.80
2018-01-10T18:43:39.784Z,4.60
2018-01-10T18:46:08.118Z,4.50
2018-01-10T18:48:36.261Z,4.30
2018-01-10T18:51:04.321Z,4.30
2018-01-10T18:53:33.233Z,4.30
2018-01-10T18:56:01.318Z,4.30
2018-01-10T18:58:29.346Z,4.20
2018-01-10T19:00:57.398Z,4.10
2018-01-10T19:03:26.271Z,4.10
2018-01-10T19:05:54.334Z,4.20
2018-01-10T19:08:22.528Z,4.00
2018-01-10T19:10:50.565Z,4.00
2018-01-10T19:13:18.631Z,4.10
2018-01-10T19:15:46.682Z,4.20
2018-01-10T19:18:15.522Z,4.10
2018-01-10T19:20:44.337Z,3.80
2018-01-10T19:23:12.405Z,3.70
2018-01-10T19:25:40.453Z,3.50
2018-01-10T19:28:08.558Z,3.60
2018-01-10T19:30:36.609Z,3.70
2018-01-10T19:33:05.009Z,3.50
2018-01-10T19:35:36.437Z,3.40
2018-01-10T19:38:04.510Z,3.40
2018-01-10T19:40:33.689Z,3.30
2018-01-10T19:43:02.518Z,3.50
2018-01-10T19:45:30.618Z,3.40
2018-01-10T19:47:58.758Z,3.40
2018-01-10T19:50:26.873Z,3.70
2018-01-10T19:52:55.677Z,3.60
2018-01-10T19:55:23.742Z,3.50
2018-01-10T19:57:51.909Z,3.40
2018-01-10T20:00:20.000Z,3.50
2018-01-10T20:02:48.082Z,3.60
2018-01-10T20:05:16.146Z,3.60
2018-01-10T20:07:44.230Z,3.50
2018-01-10T20:10:12.343Z,3.40
2018-01-10T20:12:40.673Z,3.50
2018-01-10T20:15:08.726Z,3.60
2018-01-10T20:17:36.973Z,3.60
2018-01-10T20:20:05.798Z,3.50
2018-01-10T20:22:34.618Z,3.30
2018-01-10T20:25:02.697Z,3.30
2018-01-10T20:27:30.940Z,3.30
2018-01-10T20:29:58.994Z,3.40
2018-01-10T20:32:27.829Z,3.50
2018-01-10T20:34:55.885Z,3.50
2018-01-10T20:37:24.044Z,3.60
2018-01-10T20:39:54.361Z,3.40
2018-01-10T20:42:23.177Z,3.40
2018-01-10T20:44:51.226Z,3.30
2018-01-10T20:47:19.316Z,3.30
2018-01-10T20:49:48.165Z,3.30
2018-01-10T20:52:16.222Z,3.50
2018-01-10T20:54:44.317Z,3.30
2018-01-10T20:57:12.399Z,3.40
2018-01-10T20:59:40.457Z,3.60
2018-01-10T21:02:08.517Z,3.40
2018-01-10T21:04:36.557Z,3.40
2018-01-10T21:07:05.413Z,3.30
2018-01-10T21:09:33.536Z,3.30
2018-01-10T21:12:01.675Z,3.00
2018-01-10T21:14:29.733Z,3.00
2018-01-10T21:16:57.797Z,2.90
2018-01-10T21:19:26.521Z,3.10
2018-01-10T21:21:54.590Z,3.10
2018-01-10T21:24:22.701Z,3.20
2018-01-10T21:26:50.854Z,3.00
2018-01-10T21:29:18.914Z,3.00
2018-01-10T21:31:47.201Z,3.00
2018-01-10T21:34:15.280Z,2.80
2018-01-10T21:36:43.358Z,3.10
2018-01-10T21:39:11.418Z,3.10
2018-01-10T21:41:39.509Z,3.10
2018-01-10T21:44:07.591Z,3.00
2018-01-10T21:46:35.657Z,3.10
2018-01-10T21:49:03.722Z,3.30
2018-01-10T21:51:31.782Z,3.10
2018-01-10T21:53:59.846Z,2.90
2018-01-10T21:56:28.658Z,3.00
2018-01-10T21:58:57.190Z,3.10
2018-01-10T22:01:25.243Z,3.30
2018-01-10T22:03:53.297Z,3.30
2018-01-10T22:06:21.403Z,3.00
2018-01-10T22:08:49.474Z,2.90
2018-01-10T22:11:17.549Z,3.00
2018-01-10T22:13:45.621Z,3.00
2018-01-10T22:16:13.670Z,2.90
2018-01-10T22:18:41.773Z,2.60
2018-01-10T22:21:09.834Z,2.90
2018-01-10T22:23:37.938Z,3.00
2018-01-10T22:26:06.006Z,3.00
2018-01-10T22:28:34.195Z,3.10
2018-01-10T22:31:02.269Z,3.20
2018-01-10T22:33:30.342Z,3.50
2018-01-10T22:35:58.514Z,3.00
2018-01-10T22:38:26.580Z,2.90
2018-01-10T22:40:54.642Z,2.90
2018-01-10T22:43:22.694Z,2.90
2018-01-10T22:45:51.535Z,2.80
2018-01-10T22:48:19.608Z,3.00
2018-01-10T22:50:47.674Z,3.00
2018-01-10T22:53:15.722Z,2.90
2018-01-10T22:55:44.050Z,2.80
2018-01-10T22:58:12.105Z,2.70
2018-01-10T23:00:40.198Z,2.70
2018-01-10T23:03:08.262Z,2.70
2018-01-10T23:05:36.354Z,2.70
2018-01-10T23:08:04.422Z,2.70
2018-01-10T23:10:32.506Z,2.70
2018-01-10T23:13:00.578Z,2.70
2018-01-10T23:15:28.629Z,2.80
2018-01-10T23:17:56.699Z,2.90
2018-01-10T23:20:24.745Z,3.00
2018-01-10T23:22:53.608Z,3.00
2018-01-10T23:25:21.682Z,2.80
2018-01-10T23:27:49.814Z,3.20
2018-01-10T23:30:17.934Z,3.10
2018-01-10T23:32:46.002Z,2.70
2018-01-10T23:35:15.077Z,2.70
2018-01-10T23:37:43.187Z,2.70
2018-01-10T23:40:11.266Z,3.00
2018-01-10T23:42:39.329Z,2.90
2018-01-10T23:45:07.382Z,2.80
2018-01-10T23:47:35.494Z,3.10
2018-01-10T23:50:03.551Z,3.30
2018-01-10T23:52:31.652Z,3.20
2018-01-10T23:54:59.722Z,3.00
2018-01-10T23:57:27.867Z,3.00
2018-01-10T23:59:55.973Z,3.10
